createdAt,value
2018-05-11T00:00:47.404Z,75.09
2018-05-11T00:03:14.964Z,74.77
2018-05-11T00:05:42.558Z,74.82
2018-05-11T00:08:10.185Z,76.44
2018-05-11T00:10:37.729Z,76.55
2018-05-11T00:13:05.339Z,77.20
2018-05-11T00:15:32.864Z,77.84
2018-05-11T00:18:00.413Z,76.58
2018-05-11T00:20:27.984Z,76.31
2018-05-11T00:22:55.577Z,77.08
2018-05-11T00:25:23.206Z,77.27
2018-05-11T00:27:50.841Z,77.37
2018-05-11T00:30:18.354Z,77.34
2018-05-11T00:32:45.933Z,76.76
2018-05-11T00:35:13.461Z,77.61
2018-05-11T00:37:41.105Z,77.62
2018-05-11T00:40:08.770Z,76.49
2018-05-11T00:42:36.441Z,77.81
2018-05-11T00:45:03.965Z,76.98
2018-05-11T00:47:31.539Z,77.29
2018-05-11T00:49:59.107Z,77.60
2018-05-11T00:52:26.777Z,77.10
2018-05-11T00:54:54.328Z,78.39
2018-05-11T00:57:22.003Z,78.81
2018-05-11T00:59:49.557Z,78.10
2018-05-11T01:02:17.135Z,77.97
2018-05-11T01:04:44.656Z,78.08
2018-05-11T01:07:12.331Z,78.52
2018-05-11T01:09:39.891Z,78.11
2018-05-11T01:12:07.561Z,78.53
2018-05-11T01:14:35.124Z,78.00
2018-05-11T01:17:02.783Z,78.54
2018-05-11T01:19:30.334Z,78.25
2018-05-11T01:21:57.897Z,79.14
2018-05-11T01:24:25.568Z,79.75
2018-05-11T01:26:53.229Z,79.14
2018-05-11T01:29:20.883Z,78.27
2018-05-11T01:31:48.463Z,77.39
2018-05-11T01:34:15.997Z,78.27
2018-05-11T01:36:43.561Z,78.39
2018-05-11T01:39:11.117Z,78.23
2018-05-11T01:41:38.789Z,77.52
2018-05-11T01:44:06.346Z,77.48
2018-05-11T01:46:34.001Z,78.15
2018-05-11T01:49:01.522Z,79.06
2018-05-11T01:51:29.118Z,79.66
2018-05-11T01:53:56.659Z,80.48
2018-05-11T01:56:24.250Z,80.06
2018-05-11T01:58:51.909Z,79.44
2018-05-11T02:01:19.566Z,79.51
2018-05-11T02:03:47.225Z,80.25
2018-05-11T02:06:14.816Z,81.59
2018-05-11T02:08:42.447Z,80.01
2018-05-11T02:11:09.973Z,79.10
2018-05-11T02:13:37.522Z,79.62
2018-05-11T02:16:05.126Z,79.46
2018-05-11T02:18:32.807Z,79.50
2018-05-11T02:21:00.346Z,79.10
2018-05-11T02:23:27.983Z,79.32
2018-05-11T02:25:55.616Z,79.79
2018-05-11T02:28:23.237Z,80.25
2018-05-11T02:30:50.762Z,79.75
2018-05-11T02:33:18.348Z,79.23
2018-05-11T02:35:45.909Z,79.24
2018-05-11T02:38:13.462Z,80.02
2018-05-11T02:40:41.028Z,79.60
2018-05-11T02:43:08.662Z,80.54
2018-05-11T02:45:36.259Z,80.78
2018-05-11T02:48:03.911Z,80.95
2018-05-11T02:50:31.495Z,82.08
2018-05-11T02:52:59.006Z,81.25
2018-05-11T02:55:26.534Z,80.97
2018-05-11T02:57:54.078Z,80.85
2018-05-11T03:00:21.716Z,80.56
2018-05-11T03:02:49.346Z,80.87
2018-05-11T03:05:16.931Z,79.96
2018-05-11T03:07:44.495Z,81.23
2018-05-11T03:10:12.023Z,81.57
2018-05-11T03:12:39.574Z,80.66
2018-05-11T03:15:07.103Z,80.13
2018-05-11T03:17:34.732Z,80.20
2018-05-11T03:20:02.254Z,80.00
2018-05-11T03:22:29.847Z,80.74
2018-05-11T03:24:58.240Z,80.52
2018-05-11T03:27:25.891Z,80.78
2018-05-11T03:29:53.465Z,80.74
2018-05-11T03:32:21.006Z,81.95
2018-05-11T03:34:48.570Z,81.79
2018-05-11T03:37:16.094Z,81.13
2018-05-11T03:39:43.673Z,81.89
2018-05-11T03:42:11.252Z,82.57
2018-05-11T03:44:38.883Z,81.76
2018-05-11T03:47:06.455Z,81.45
2018-05-11T03:49:34.026Z,81.31
2018-05-11T03:52:01.561Z,81.77
2018-05-11T03:54:29.142Z,81.14
2018-05-11T03:56:56.716Z,81.45
2018-05-11T03:59:24.369Z,81.71
2018-05-11T04:02:03.716Z,81.09
2018-05-11T04:04:43.249Z,80.93
2018-05-11T04:07:22.698Z,81.05
2018-05-11T04:09:50.344Z,80.66
2018-05-11T04:12:17.879Z,80.45
2018-05-11T04:14:45.462Z,81.06
2018-05-11T04:17:13.053Z,82.15
2018-05-11T04:19:40.686Z,81.73
2018-05-11T04:22:08.242Z,82.00
2018-05-11T04:24:35.789Z,81.69
2018-05-11T04:27:03.313Z,82.11
2018-05-11T04:29:30.870Z,81.59
2018-05-11T04:31:58.491Z,81.07
2018-05-11T04:34:26.078Z,80.26
2018-05-11T04:36:53.678Z,80.42
2018-05-11T04:39:21.365Z,80.18
2018-05-11T04:41:49.027Z,80.45
2018-05-11T04:44:16.588Z,80.94
2018-05-11T04:46:44.133Z,80.67
2018-05-11T04:49:11.664Z,80.93
2018-05-11T04:51:39.215Z,80.55
2018-05-11T04:54:06.769Z,79.85
2018-05-11T04:56:34.346Z,79.68
2018-05-11T04:59:01.871Z,80.10
2018-05-11T05:01:29.897Z,79.47
2018-05-11T05:03:57.478Z,79.43
2018-05-11T05:06:25.077Z,79.85
2018-05-11T05:08:52.639Z,79.43
2018-05-11T05:11:20.263Z,78.08
2018-05-11T05:13:47.784Z,77.89
2018-05-11T05:16:15.668Z,77.67
2018-05-11T05:18:43.240Z,77.05
2018-05-11T05:21:10.902Z,76.85
2018-05-11T05:23:38.461Z,75.43
2018-05-11T05:26:06.045Z,75.29
2018-05-11T05:28:33.579Z,74.69
2018-05-11T05:31:01.118Z,74.63
2018-05-11T05:33:28.702Z,75.41
2018-05-11T05:35:56.257Z,75.40
2018-05-11T05:38:23.819Z,75.95
2018-05-11T05:40:51.409Z,75.31
2018-05-11T05:43:18.986Z,74.85
2018-05-11T05:45:46.669Z,74.96
2018-05-11T05:48:14.164Z,74.41
2018-05-11T05:50:41.741Z,74.10
2018-05-11T05:53:09.269Z,74.03
2018-05-11T05:55:37.148Z,73.63
2018-05-11T05:58:04.704Z,73.54
2018-05-11T06:00:32.378Z,73.59
2018-05-11T06:03:00.079Z,73.46
2018-05-11T06:05:27.691Z,73.58
2018-05-11T06:07:55.261Z,73.33
2018-05-11T06:10:22.809Z,73.41
2018-05-11T06:12:50.483Z,73.31
2018-05-11T06:15:18.140Z,72.39
2018-05-11T06:17:45.804Z,72.51
2018-05-11T06:20:13.345Z,72.36
2018-05-11T06:22:40.896Z,71.50
2018-05-11T06:25:08.425Z,70.92
2018-05-11T06:27:36.045Z,70.91
2018-05-11T06:30:03.707Z,70.46
2018-05-11T06:32:31.358Z,70.19
2018-05-11T06:35:00.985Z,69.42
2018-05-11T06:37:28.625Z,69.54
2018-05-11T06:39:56.162Z,69.83
2018-05-11T06:42:23.737Z,69.46
2018-05-11T06:44:51.265Z,69.38
2018-05-11T06:47:19.274Z,69.12
2018-05-11T06:49:46.822Z,68.51
2018-05-11T06:52:14.395Z,67.95
2018-05-11T06:54:42.069Z,68.15
2018-05-11T06:57:09.628Z,67.56
2018-05-11T06:59:37.281Z,66.54
2018-05-11T07:02:06.486Z,66.55
2018-05-11T07:04:34.284Z,66.23
2018-05-11T07:07:01.862Z,65.50
2018-05-11T07:09:29.420Z,65.39
2018-05-11T07:11:57.018Z,64.72
2018-05-11T07:14:24.562Z,64.31
2018-05-11T07:16:52.447Z,64.83
2018-05-11T07:19:20.155Z,64.31
2018-05-11T07:21:47.999Z,64.14
2018-05-11T07:24:15.526Z,64.26
2018-05-11T07:26:43.103Z,64.33
2018-05-11T07:29:10.655Z,64.11
2018-05-11T07:31:39.359Z,63.87
2018-05-11T07:34:06.986Z,64.10
2018-05-11T07:36:34.561Z,64.00
2018-05-11T07:39:03.041Z,63.35
2018-05-11T07:41:31.471Z,63.30
2018-05-11T07:43:59.018Z,63.49
2018-05-11T07:46:27.236Z,63.20
2018-05-11T07:48:54.802Z,62.47
2018-05-11T07:51:22.376Z,62.50
2018-05-11T07:53:50.041Z,62.49
2018-05-11T07:56:18.730Z,62.01
2018-05-11T07:58:46.379Z,62.57
2018-05-11T08:01:13.944Z,62.72
2018-05-11T08:03:41.606Z,61.51
2018-05-11T08:06:09.158Z,60.87
2018-05-11T08:08:36.741Z,60.18
2018-05-11T08:11:05.104Z,59.95
2018-05-11T08:13:32.767Z,59.14
2018-05-11T08:16:00.326Z,59.55
2018-05-11T08:18:28.001Z,59.85
2018-05-11T08:20:55.552Z,60.08
2018-05-11T08:23:23.211Z,60.09
2018-05-11T08:25:50.756Z,59.89
2018-05-11T08:28:18.339Z,59.21
2018-05-11T08:30:45.887Z,59.83
2018-05-11T08:33:13.462Z,59.84
2018-05-11T08:35:41.017Z,59.03
2018-05-11T08:38:08.573Z,59.57
2018-05-11T08:40:36.127Z,58.53
2018-05-11T08:43:03.729Z,57.80
2018-05-11T08:45:31.275Z,57.71
2018-05-11T08:47:58.900Z,57.14
2018-05-11T08:50:26.434Z,58.31
2018-05-11T08:52:54.033Z,56.89
2018-05-11T08:55:21.590Z,56.41
2018-05-11T08:57:49.176Z,55.77
2018-05-11T09:00:16.808Z,55.88
2018-05-11T09:02:44.685Z,56.91
2018-05-11T09:05:13.158Z,56.22
2018-05-11T09:07:41.122Z,55.56
2018-05-11T09:10:09.971Z,56.06
2018-05-11T09:12:37.680Z,56.34
2018-05-11T09:15:05.233Z,56.68
2018-05-11T09:17:32.804Z,56.29
2018-05-11T09:20:00.657Z,56.02
2018-05-11T09:22:28.331Z,55.92
2018-05-11T09:24:56.063Z,55.67
2018-05-11T09:27:23.864Z,55.26
2018-05-11T09:29:51.575Z,55.74
2018-05-11T09:32:19.837Z,55.30
2018-05-11T09:34:47.398Z,55.08
2018-05-11T09:37:15.374Z,54.62
2018-05-11T09:39:43.317Z,54.01
2018-05-11T09:42:11.229Z,53.79
2018-05-11T09:44:38.782Z,52.84
2018-05-11T09:47:07.334Z,52.85
2018-05-11T09:49:38.334Z,52.75
2018-05-11T09:52:06.214Z,53.82
2018-05-11T09:54:34.337Z,54.15
2018-05-11T09:57:02.351Z,53.49
2018-05-11T09:59:30.066Z,53.51
2018-05-11T10:01:57.889Z,51.69
2018-05-11T10:04:25.762Z,50.82
2018-05-11T10:06:53.297Z,51.96
2018-05-11T10:09:21.152Z,50.96
2018-05-11T10:11:48.729Z,49.54
2018-05-11T10:14:17.316Z,49.93
2018-05-11T10:16:44.960Z,49.59
2018-05-11T10:19:13.025Z,48.64
2018-05-11T10:21:41.034Z,48.88
2018-05-11T10:24:08.965Z,50.21
2018-05-11T10:26:36.761Z,49.12
2018-05-11T10:29:04.750Z,47.90
2018-05-11T10:31:33.069Z,47.18
2018-05-11T10:34:00.685Z,47.46
2018-05-11T10:36:28.271Z,47.33
2018-05-11T10:38:55.881Z,47.84
2018-05-11T10:41:23.545Z,47.41
2018-05-11T10:43:51.681Z,47.58
2018-05-11T10:46:19.287Z,47.21
2018-05-11T10:48:46.905Z,46.14
2018-05-11T10:51:17.434Z,47.00
2018-05-11T10:53:45.443Z,46.18
2018-05-11T10:56:13.098Z,46.42
2018-05-11T10:58:40.731Z,46.30
2018-05-11T11:01:08.273Z,44.69
2018-05-11T11:03:35.827Z,42.30
2018-05-11T11:06:03.400Z,42.26
2018-05-11T11:08:30.949Z,43.53
2018-05-11T11:10:58.559Z,43.15
2018-05-11T11:13:26.108Z,43.09
2018-05-11T11:15:55.456Z,41.82
2018-05-11T11:18:22.993Z,42.65
2018-05-11T11:20:50.538Z,42.19
2018-05-11T11:23:18.066Z,43.16
2018-05-11T11:25:46.046Z,42.54
2018-05-11T11:28:13.620Z,41.97
2018-05-11T11:30:41.922Z,42.40
2018-05-11T11:33:09.450Z,42.33
2018-05-11T11:35:40.240Z,43.17
2018-05-11T11:38:08.253Z,43.49
2018-05-11T11:40:35.833Z,43.44
2018-05-11T11:43:03.357Z,42.93
2018-05-11T11:45:31.336Z,42.96
2018-05-11T11:47:58.941Z,42.55
2018-05-11T11:50:26.513Z,43.28
2018-05-11T11:52:54.044Z,43.50
2018-05-11T11:55:21.598Z,45.63
2018-05-11T11:57:49.156Z,44.85
2018-05-11T12:00:16.814Z,45.45
2018-05-11T12:02:44.355Z,44.64
2018-05-11T12:05:11.904Z,43.42
2018-05-11T12:07:39.502Z,43.64
2018-05-11T12:10:07.059Z,43.00
2018-05-11T12:12:34.869Z,42.91
2018-05-11T12:15:02.517Z,43.37
2018-05-11T12:17:30.071Z,42.66
2018-05-11T12:19:57.701Z,42.51
2018-05-11T12:22:25.274Z,42.94
2018-05-11T12:24:52.823Z,42.28
2018-05-11T12:27:20.375Z,43.60
2018-05-11T12:29:48.251Z,44.91
2018-05-11T12:32:15.806Z,43.68
2018-05-11T12:34:43.330Z,44.84
2018-05-11T12:37:10.881Z,44.54
2018-05-11T12:39:38.588Z,45.22
2018-05-11T12:42:06.252Z,44.05
2018-05-11T12:44:33.814Z,42.65
2018-05-11T12:47:01.364Z,44.08
2018-05-11T12:49:28.926Z,43.33
2018-05-11T12:51:56.505Z,42.97
2018-05-11T12:54:24.055Z,43.41
2018-05-11T12:56:51.707Z,43.72
2018-05-11T12:59:19.267Z,42.88
2018-05-11T13:01:46.934Z,42.39
2018-05-11T13:04:14.487Z,41.77
2018-05-11T13:06:42.162Z,42.61
2018-05-11T13:09:09.714Z,42.06
2018-05-11T13:11:37.372Z,42.68
2018-05-11T13:14:04.931Z,42.33
2018-05-11T13:16:32.445Z,42.56
2018-05-11T13:19:00.051Z,40.91
2018-05-11T13:21:27.619Z,40.93
2018-05-11T13:23:55.276Z,40.75
2018-05-11T13:26:22.888Z,41.77
2018-05-11T13:28:50.496Z,41.19
2018-05-11T13:31:18.150Z,40.72
2018-05-11T13:33:45.730Z,40.72
2018-05-11T13:36:13.282Z,40.67
2018-05-11T13:38:40.843Z,39.65
2018-05-11T13:41:08.389Z,39.58
2018-05-11T13:43:35.942Z,39.93
2018-05-11T13:46:03.512Z,39.81
2018-05-11T13:48:31.278Z,40.65
2018-05-11T13:50:58.811Z,40.60
2018-05-11T13:53:26.403Z,40.34
2018-05-11T13:55:53.956Z,40.14
2018-05-11T13:58:21.526Z,39.13
2018-05-11T14:00:49.162Z,38.62
2018-05-11T14:03:16.739Z,40.22
2018-05-11T14:05:44.270Z,39.58
2018-05-11T14:08:11.833Z,40.62
2018-05-11T14:10:39.419Z,41.84
2018-05-11T14:13:06.998Z,42.22
2018-05-11T14:15:34.525Z,41.64
2018-05-11T14:18:02.076Z,41.31
2018-05-11T14:20:29.653Z,38.78
2018-05-11T14:22:57.206Z,39.79
2018-05-11T14:25:24.782Z,39.50
2018-05-11T14:27:52.437Z,38.65
2018-05-11T14:30:19.962Z,37.72
2018-05-11T14:32:47.488Z,38.75
2018-05-11T14:35:15.115Z,38.86
2018-05-11T14:37:42.642Z,40.09
2018-05-11T14:40:10.247Z,39.54
2018-05-11T14:42:37.801Z,38.87
2018-05-11T14:45:05.454Z,38.49
2018-05-11T14:47:33.013Z,38.05
2018-05-11T14:50:00.769Z,39.60
2018-05-11T14:52:28.230Z,39.36
2018-05-11T14:54:55.810Z,40.27
2018-05-11T14:57:24.210Z,40.41
2018-05-11T14:59:51.834Z,39.67
2018-05-11T15:02:19.393Z,39.24
2018-05-11T15:04:47.642Z,38.81
2018-05-11T15:07:15.231Z,39.06
2018-05-11T15:09:42.799Z,38.41
2018-05-11T15:12:10.349Z,37.74
2018-05-11T15:14:37.908Z,37.42
2018-05-11T15:17:05.454Z,37.29
2018-05-11T15:19:33.031Z,36.26
2018-05-11T15:22:00.588Z,36.02
2018-05-11T15:24:28.249Z,37.05
2018-05-11T15:26:55.785Z,38.88
2018-05-11T15:29:23.470Z,39.49
2018-05-11T15:31:50.993Z,40.44
2018-05-11T15:34:18.542Z,39.74
2018-05-11T15:36:46.092Z,39.45
2018-05-11T15:39:13.711Z,39.12
2018-05-11T15:41:41.270Z,37.73
2018-05-11T15:44:08.824Z,36.76
2018-05-11T15:46:36.377Z,37.89
2018-05-11T15:49:03.958Z,36.15
2018-05-11T15:51:31.509Z,35.45
2018-05-11T15:53:59.034Z,34.64
2018-05-11T15:56:26.628Z,35.85
2018-05-11T15:58:54.167Z,34.86
2018-05-11T16:01:21.717Z,35.02
2018-05-11T16:03:49.242Z,35.56
2018-05-11T16:06:17.878Z,37.17
2018-05-11T16:08:45.550Z,37.15
2018-05-11T16:11:13.126Z,37.46
2018-05-11T16:13:40.653Z,37.14
2018-05-11T16:16:08.331Z,35.50
2018-05-11T16:18:35.883Z,36.45
2018-05-11T16:21:03.466Z,37.35
2018-05-11T16:23:30.988Z,37.29
2018-05-11T16:25:58.672Z,36.40
2018-05-11T16:28:26.295Z,36.51
2018-05-11T16:30:53.846Z,37.14
2018-05-11T16:33:21.451Z,37.61
2018-05-11T16:35:49.024Z,37.50
2018-05-11T16:38:16.569Z,37.09
2018-05-11T16:40:44.156Z,36.19
2018-05-11T16:43:11.678Z,36.61
2018-05-11T16:45:39.281Z,37.46
2018-05-11T16:48:06.968Z,37.05
2018-05-11T16:50:34.572Z,37.50
2018-05-11T16:53:02.163Z,38.65
2018-05-11T16:55:29.794Z,39.31
2018-05-11T16:57:57.456Z,38.12
2018-05-11T17:00:25.122Z,39.50
2018-05-11T17:02:52.780Z,40.82
2018-05-11T17:05:20.324Z,41.35
2018-05-11T17:07:48.106Z,41.79
2018-05-11T17:10:15.774Z,42.76
2018-05-11T17:12:43.432Z,42.89
2018-05-11T17:15:10.986Z,43.70
2018-05-11T17:17:38.649Z,44.24
2018-05-11T17:20:06.207Z,44.62
2018-05-11T17:22:33.797Z,43.68
2018-05-11T17:25:01.438Z,44.78
2018-05-11T17:27:29.021Z,43.69
2018-05-11T17:29:56.574Z,43.81
2018-05-11T17:32:24.211Z,43.28
2018-05-11T17:34:51.869Z,39.77
2018-05-11T17:37:19.405Z,43.07
2018-05-11T17:39:48.233Z,43.97
2018-05-11T17:42:15.985Z,39.84
2018-05-11T17:44:43.660Z,38.36
2018-05-11T17:47:11.239Z,40.89
2018-05-11T17:49:38.766Z,43.64
2018-05-11T17:52:06.324Z,42.44
2018-05-11T17:54:33.886Z,39.50
2018-05-11T17:57:01.503Z,39.05
2018-05-11T17:59:29.124Z,40.82
2018-05-11T18:01:56.651Z,41.66
2018-05-11T18:04:24.331Z,44.16
2018-05-11T18:06:51.886Z,44.70
2018-05-11T18:09:19.549Z,47.20
2018-05-11T18:11:47.109Z,46.75
2018-05-11T18:14:14.662Z,47.24
2018-05-11T18:16:42.512Z,47.19
2018-05-11T18:19:10.392Z,46.92
2018-05-11T18:21:37.918Z,48.43
2018-05-11T18:24:05.473Z,48.43
2018-05-11T18:26:32.994Z,49.36
2018-05-11T18:29:01.100Z,49.80
2018-05-11T18:31:28.712Z,50.06
2018-05-11T18:33:56.629Z,51.09
2018-05-11T18:36:24.157Z,51.23
2018-05-11T18:38:51.813Z,51.49
2018-05-11T18:41:19.464Z,51.49
2018-05-11T18:43:46.993Z,51.44
2018-05-11T18:46:14.580Z,51.78
2018-05-11T18:48:42.118Z,53.74
2018-05-11T18:51:09.670Z,54.23
2018-05-11T18:53:37.440Z,53.98
2018-05-11T18:56:05.010Z,54.01
2018-05-11T18:58:32.477Z,55.01
2018-05-11T19:01:00.026Z,55.64
2018-05-11T19:03:27.600Z,55.87
2018-05-11T19:05:55.260Z,56.55
2018-05-11T19:08:22.834Z,57.40
2018-05-11T19:10:50.390Z,58.32
2018-05-11T19:13:17.917Z,58.09
2018-05-11T19:15:45.496Z,58.65
2018-05-11T19:18:13.018Z,58.26
2018-05-11T19:20:40.618Z,58.50
2018-05-11T19:23:08.178Z,59.05
2018-05-11T19:25:35.745Z,58.03
2018-05-11T19:28:03.304Z,59.58
2018-05-11T19:30:30.881Z,60.51
2018-05-11T19:32:58.415Z,59.56
2018-05-11T19:35:26.080Z,61.21
2018-05-11T19:38:00.766Z,62.13
2018-05-11T19:40:28.741Z,62.59
2018-05-11T19:42:56.266Z,62.96
2018-05-11T19:45:23.821Z,62.17
2018-05-11T19:47:51.351Z,63.61
2018-05-11T19:50:19.675Z,62.43
2018-05-11T19:52:47.289Z,62.66
2018-05-11T19:55:14.951Z,61.87
2018-05-11T19:57:42.481Z,62.10
2018-05-11T20:00:10.062Z,64.58
2018-05-11T20:02:37.637Z,63.03
2018-05-11T20:05:05.292Z,64.32
2018-05-11T20:07:32.850Z,65.38
2018-05-11T20:10:00.610Z,65.24
2018-05-11T20:12:28.175Z,65.78
2018-05-11T20:14:55.747Z,64.47
2018-05-11T20:17:23.301Z,66.17
2018-05-11T20:19:50.959Z,65.36
2018-05-11T20:22:18.582Z,66.69
2018-05-11T20:24:46.108Z,67.73
2018-05-11T20:27:13.653Z,70.93
2018-05-11T20:29:41.204Z,70.00
2018-05-11T20:32:08.862Z,69.64
2018-05-11T20:34:36.413Z,69.09
2018-05-11T20:37:04.078Z,71.23
2018-05-11T20:39:31.621Z,68.60
2018-05-11T20:41:59.299Z,68.47
2018-05-11T20:44:26.867Z,68.61
2018-05-11T20:46:54.450Z,69.06
2018-05-11T20:49:22.802Z,67.67
2018-05-11T20:51:50.460Z,67.43
2018-05-11T20:54:18.349Z,67.50
2018-05-11T20:56:46.134Z,67.01
2018-05-11T20:59:13.737Z,68.56
2018-05-11T21:01:43.893Z,69.32
2018-05-11T21:04:11.441Z,70.54
2018-05-11T21:06:39.094Z,71.73
2018-05-11T21:09:06.644Z,72.61
2018-05-11T21:11:34.397Z,72.56
2018-05-11T21:14:02.054Z,72.76
2018-05-11T21:16:29.622Z,71.44
2018-05-11T21:18:57.152Z,71.57
2018-05-11T21:21:24.958Z,72.18
2018-05-11T21:23:52.509Z,71.87
2018-05-11T21:26:20.130Z,73.75
2018-05-11T21:28:47.666Z,73.73
2018-05-11T21:31:15.270Z,76.23
2018-05-11T21:33:42.816Z,75.28
2018-05-11T21:36:10.421Z,73.51
2018-05-11T21:38:37.949Z,74.17
2018-05-11T21:41:08.764Z,72.56
2018-05-11T21:43:39.291Z,72.65
2018-05-11T21:46:06.983Z,73.34
2018-05-11T21:48:34.576Z,74.31
2018-05-11T21:51:02.237Z,75.88
2018-05-11T21:53:29.888Z,75.82
2018-05-11T21:56:01.868Z,74.77
2018-05-11T21:58:30.466Z,73.22
2018-05-11T22:00:58.920Z,72.90
2018-05-11T22:03:26.492Z,73.31
2018-05-11T22:05:54.363Z,74.76
2018-05-11T22:08:23.034Z,73.94
2018-05-11T22:10:50.703Z,71.91
2018-05-11T22:13:19.115Z,72.37
2018-05-11T22:15:46.836Z,75.98
2018-05-11T22:18:14.930Z,75.35
2018-05-11T22:20:43.604Z,75.66
2018-05-11T22:23:11.864Z,75.16
2018-05-11T22:25:42.227Z,74.90
2018-05-11T22:28:10.593Z,76.29
2018-05-11T22:30:38.337Z,76.27
2018-05-11T22:33:07.037Z,75.84
2018-05-11T22:35:35.189Z,75.25
2018-05-11T22:38:03.887Z,75.18
2018-05-11T22:40:31.851Z,75.50
2018-05-11T22:42:59.431Z,74.44
2018-05-11T22:45:27.097Z,75.34
2018-05-11T22:47:54.838Z,76.04
2018-05-11T22:50:22.806Z,73.83
2018-05-11T22:52:50.570Z,73.08
2018-05-11T22:55:18.241Z,71.18
2018-05-11T22:57:46.258Z,72.16
2018-05-11T23:00:18.944Z,75.39
2018-05-11T23:02:47.158Z,76.01
2018-05-11T23:05:15.979Z,76.28
2018-05-11T23:07:43.550Z,75.63
2018-05-11T23:10:11.122Z,76.53
2018-05-11T23:12:38.735Z,76.16
2018-05-11T23:15:06.285Z,73.84
2018-05-11T23:17:33.838Z,73.73
2018-05-11T23:20:01.742Z,76.89
2018-05-11T23:22:29.373Z,77.11
2018-05-11T23:24:57.865Z,76.02
2018-05-11T23:27:25.439Z,76.22
2018-05-11T23:29:52.971Z,74.90
2018-05-11T23:32:20.636Z,75.45
2018-05-11T23:34:48.196Z,76.33
2018-05-11T23:37:15.858Z,76.99
2018-05-11T23:39:43.429Z,74.70
2018-05-11T23:42:10.957Z,76.70
2018-05-11T23:44:38.509Z,75.98
2018-05-11T23:47:06.038Z,74.84
2018-05-11T23:49:33.656Z,75.07
2018-05-11T23:52:01.215Z,76.87
2018-05-11T23:54:28.888Z,76.61
2018-05-11T23:56:56.445Z,77.73
2018-05-11T23:59:24.101Z,77.42
